createdAt,value
2017-11-17T00:00:16.946Z,1006.73
2017-11-17T00:01:16.972Z,1006.78
2017-11-17T00:02:17.049Z,1006.80
2017-11-17T00:03:17.028Z,1006.79
2017-11-17T00:04:17.050Z,1006.76
2017-11-17T00:05:17.077Z,1006.73
2017-11-17T00:06:17.109Z,1006.66
2017-11-17T00:07:17.129Z,1006.63
2017-11-17T00:08:17.155Z,1006.59
2017-11-17T00:09:17.182Z,1006.61
2017-11-17T00:10:17.208Z,1006.56
2017-11-17T00:11:17.235Z,1006.53
2017-11-17T00:12:17.260Z,1006.58
2017-11-17T00:13:17.287Z,1006.64
2017-11-17T00:14:17.313Z,1006.69
2017-11-17T00:15:17.340Z,1006.60
2017-11-17T00:16:17.365Z,1006.53
2017-11-17T00:17:17.391Z,1006.47
2017-11-17T00:18:17.418Z,1006.49
2017-11-17T00:19:17.444Z,1006.56
2017-11-17T00:20:17.471Z,1006.67
2017-11-17T00:21:17.495Z,1006.61
2017-11-17T00:22:17.522Z,1006.65
2017-11-17T00:23:17.550Z,1006.62
2017-11-17T00:24:17.576Z,1006.65
2017-11-17T00:25:17.605Z,1006.64
2017-11-17T00:26:17.627Z,1006.62
2017-11-17T00:27:17.655Z,1006.67
2017-11-17T00:28:17.679Z,1006.66
2017-11-17T00:29:17.707Z,1006.65
2017-11-17T00:30:17.733Z,1006.63
2017-11-17T00:31:17.763Z,1006.59
2017-11-17T00:32:17.784Z,1006.58
2017-11-17T00:33:17.812Z,1006.64
2017-11-17T00:34:17.837Z,1006.70
2017-11-17T00:35:17.865Z,1006.65
2017-11-17T00:36:17.888Z,1006.69
2017-11-17T00:37:17.916Z,1006.68
2017-11-17T00:38:17.946Z,1006.67
2017-11-17T00:39:17.974Z,1006.67
2017-11-17T00:40:17.993Z,1006.71
2017-11-17T00:41:18.021Z,1006.70
2017-11-17T00:42:18.048Z,1006.72
2017-11-17T00:43:18.123Z,1006.78
2017-11-17T00:44:18.098Z,1006.76
2017-11-17T00:45:18.125Z,1006.77
2017-11-17T00:46:18.151Z,1006.81
2017-11-17T00:47:18.178Z,1006.81
2017-11-17T00:48:18.204Z,1006.79
2017-11-17T00:49:18.229Z,1006.76
2017-11-17T00:50:18.256Z,1006.76
2017-11-17T00:51:18.281Z,1006.79
2017-11-17T00:52:18.306Z,1006.81
2017-11-17T00:53:18.334Z,1006.76
2017-11-17T00:54:18.360Z,1006.77
2017-11-17T00:55:18.386Z,1006.75
2017-11-17T00:56:18.412Z,1006.73
2017-11-17T00:57:18.438Z,1006.77
2017-11-17T00:58:18.465Z,1006.75
2017-11-17T00:59:18.492Z,1006.76
2017-11-17T01:00:18.517Z,1006.77
2017-11-17T01:01:18.543Z,1006.77
2017-11-17T01:02:18.571Z,1006.69
2017-11-17T01:03:18.596Z,1006.71
2017-11-17T01:04:18.621Z,1006.73
2017-11-17T01:05:18.648Z,1006.72
2017-11-17T01:06:18.675Z,1006.72
2017-11-17T01:07:18.701Z,1006.70
2017-11-17T01:08:18.733Z,1006.67
2017-11-17T01:09:18.752Z,1006.64
2017-11-17T01:10:18.780Z,1006.72
2017-11-17T01:11:18.806Z,1006.65
2017-11-17T01:12:18.831Z,1006.70
2017-11-17T01:13:18.864Z,1006.70
2017-11-17T01:14:18.885Z,1006.67
2017-11-17T01:15:18.911Z,1006.68
2017-11-17T01:16:18.936Z,1006.66
2017-11-17T01:17:18.962Z,1006.65
2017-11-17T01:18:18.989Z,1006.62
2017-11-17T01:19:19.014Z,1006.59
2017-11-17T01:20:19.040Z,1006.59
2017-11-17T01:21:19.067Z,1006.58
2017-11-17T01:22:19.099Z,1006.62
2017-11-17T01:23:19.120Z,1006.67
2017-11-17T01:24:19.196Z,1006.68
2017-11-17T01:25:19.173Z,1006.67
2017-11-17T01:26:19.200Z,1006.65
2017-11-17T01:27:19.227Z,1006.62
2017-11-17T01:28:19.254Z,1006.65
2017-11-17T01:29:19.278Z,1006.66
2017-11-17T01:30:19.304Z,1006.68
2017-11-17T01:31:19.331Z,1006.66
2017-11-17T01:32:19.357Z,1006.69
2017-11-17T01:33:19.382Z,1006.66
2017-11-17T01:34:19.410Z,1006.64
2017-11-17T01:35:19.436Z,1006.65
2017-11-17T01:36:19.461Z,1006.65
2017-11-17T01:37:19.487Z,1006.65
2017-11-17T01:38:19.521Z,1006.64
2017-11-17T01:39:19.541Z,1006.67
2017-11-17T01:40:19.567Z,1006.67
2017-11-17T01:41:19.593Z,1006.65
2017-11-17T01:42:19.620Z,1006.68
2017-11-17T01:43:19.646Z,1006.69
2017-11-17T01:44:19.672Z,1006.62
2017-11-17T01:45:19.748Z,1006.61
2017-11-17T01:46:19.732Z,1006.60
2017-11-17T01:47:19.751Z,1006.57
2017-11-17T01:48:19.776Z,1006.59
2017-11-17T01:49:19.804Z,1006.59
2017-11-17T01:50:19.831Z,1006.59
2017-11-17T01:51:19.856Z,1006.58
2017-11-17T01:52:19.883Z,1006.61
2017-11-17T01:53:19.907Z,1006.62
2017-11-17T01:54:19.933Z,1006.57
2017-11-17T01:55:20.010Z,1006.60
2017-11-17T01:56:19.986Z,1006.59
2017-11-17T01:57:20.013Z,1006.63
2017-11-17T01:58:20.039Z,1006.57
2017-11-17T01:59:20.068Z,1006.55
2017-11-17T02:00:20.101Z,1006.59
2017-11-17T02:01:20.122Z,1006.57
2017-11-17T02:02:20.146Z,1006.54
2017-11-17T02:03:20.171Z,1006.55
2017-11-17T02:04:20.196Z,1006.56
2017-11-17T02:05:20.223Z,1006.56
2017-11-17T02:06:20.250Z,1006.54
2017-11-17T02:07:20.282Z,1006.56
2017-11-17T02:08:20.300Z,1006.57
2017-11-17T02:09:20.329Z,1006.57
2017-11-17T02:10:20.362Z,1006.55
2017-11-17T02:11:20.381Z,1006.58
2017-11-17T02:12:20.405Z,1006.57
2017-11-17T02:13:20.432Z,1006.58
2017-11-17T02:14:20.459Z,1006.56
2017-11-17T02:15:20.485Z,1006.57
2017-11-17T02:16:20.562Z,1006.55
2017-11-17T02:17:20.538Z,1006.52
2017-11-17T02:18:20.566Z,1006.53
2017-11-17T02:19:20.591Z,1006.52
2017-11-17T02:20:20.617Z,1006.45
2017-11-17T02:21:20.643Z,1006.45
2017-11-17T02:22:20.671Z,1006.49
2017-11-17T02:23:20.697Z,1006.49
2017-11-17T02:24:20.722Z,1006.49
2017-11-17T02:25:20.750Z,1006.53
2017-11-17T02:26:20.776Z,1006.50
2017-11-17T02:27:20.802Z,1006.49
2017-11-17T02:28:20.829Z,1006.50
2017-11-17T02:29:20.856Z,1006.42
2017-11-17T02:30:20.883Z,1006.41
2017-11-17T02:31:20.910Z,1006.41
2017-11-17T02:32:20.934Z,1006.37
2017-11-17T02:33:20.965Z,1006.35
2017-11-17T02:34:20.989Z,1006.36
2017-11-17T02:35:21.016Z,1006.35
2017-11-17T02:36:21.041Z,1006.37
2017-11-17T02:37:21.066Z,1006.35
2017-11-17T02:38:21.092Z,1006.33
2017-11-17T02:39:21.121Z,1006.29
2017-11-17T02:40:21.146Z,1006.32
2017-11-17T02:41:21.172Z,1006.34
2017-11-17T02:42:21.200Z,1006.34
2017-11-17T02:43:21.225Z,1006.35
2017-11-17T02:44:21.253Z,1006.33
2017-11-17T02:45:21.279Z,1006.33
2017-11-17T02:46:21.306Z,1006.34
2017-11-17T02:47:21.332Z,1006.39
2017-11-17T02:48:21.359Z,1006.38
2017-11-17T02:49:21.384Z,1006.37
2017-11-17T02:50:21.411Z,1006.39
2017-11-17T02:51:21.438Z,1006.38
2017-11-17T02:52:21.464Z,1006.37
2017-11-17T02:53:21.491Z,1006.34
2017-11-17T02:54:21.516Z,1006.33
2017-11-17T02:55:21.543Z,1006.34
2017-11-17T02:56:21.570Z,1006.38
2017-11-17T02:57:21.645Z,1006.41
2017-11-17T02:58:21.622Z,1006.39
2017-11-17T02:59:21.649Z,1006.42
2017-11-17T03:00:21.675Z,1006.43
2017-11-17T03:01:21.703Z,1006.37
2017-11-17T03:02:21.728Z,1006.36
2017-11-17T03:03:21.753Z,1006.31
2017-11-17T03:04:21.781Z,1006.32
2017-11-17T03:05:21.807Z,1006.29
2017-11-17T03:06:21.832Z,1006.30
2017-11-17T03:07:21.913Z,1006.32
2017-11-17T03:08:21.886Z,1006.33
2017-11-17T03:09:21.912Z,1006.30
2017-11-17T03:10:21.939Z,1006.33
2017-11-17T03:11:21.966Z,1006.30
2017-11-17T03:12:21.992Z,1006.39
2017-11-17T03:13:22.018Z,1006.40
2017-11-17T03:14:22.045Z,1006.38
2017-11-17T03:15:22.071Z,1006.31
2017-11-17T03:16:22.107Z,1006.33
2017-11-17T03:17:22.124Z,1006.33
2017-11-17T03:18:22.151Z,1006.36
2017-11-17T03:19:22.184Z,1006.34
2017-11-17T03:20:22.204Z,1006.34
2017-11-17T03:21:22.230Z,1006.30
2017-11-17T03:22:22.257Z,1006.30
2017-11-17T03:23:22.283Z,1006.34
2017-11-17T03:24:22.310Z,1006.35
2017-11-17T03:25:22.339Z,1006.38
2017-11-17T03:26:22.364Z,1006.31
2017-11-17T03:27:22.390Z,1006.36
2017-11-17T03:28:22.415Z,1006.30
2017-11-17T03:29:22.443Z,1006.34
2017-11-17T03:30:22.469Z,1006.35
2017-11-17T03:31:22.497Z,1006.34
2017-11-17T03:32:22.519Z,1006.34
2017-11-17T03:33:22.550Z,1006.35
2017-11-17T03:34:22.573Z,1006.35
2017-11-17T03:35:22.600Z,1006.34
2017-11-17T03:36:22.628Z,1006.32
2017-11-17T03:37:22.652Z,1006.33
2017-11-17T03:38:22.680Z,1006.31
2017-11-17T03:39:22.707Z,1006.34
2017-11-17T03:40:22.733Z,1006.38
2017-11-17T03:41:22.760Z,1006.40
2017-11-17T03:42:22.786Z,1006.38
2017-11-17T03:43:22.821Z,1006.40
2017-11-17T03:44:22.838Z,1006.44
2017-11-17T03:45:22.866Z,1006.43
2017-11-17T03:46:22.893Z,1006.45
2017-11-17T03:47:22.924Z,1006.48
2017-11-17T03:48:22.945Z,1006.45
2017-11-17T03:49:22.971Z,1006.53
2017-11-17T03:50:23.000Z,1006.55
2017-11-17T03:51:23.025Z,1006.54
2017-11-17T03:52:23.052Z,1006.60
2017-11-17T03:53:23.078Z,1006.61
2017-11-17T03:54:23.105Z,1006.57
2017-11-17T03:55:23.132Z,1006.61
2017-11-17T03:56:23.158Z,1006.65
2017-11-17T03:57:23.184Z,1006.67
2017-11-17T03:58:23.211Z,1006.68
2017-11-17T03:59:23.287Z,1006.70
2017-11-17T04:00:23.269Z,1006.69
2017-11-17T04:01:23.290Z,1006.75
2017-11-17T04:02:23.316Z,1006.76
2017-11-17T04:03:23.344Z,1006.73
2017-11-17T04:04:23.369Z,1006.79
2017-11-17T04:05:23.397Z,1006.80
2017-11-17T04:06:23.421Z,1006.87
2017-11-17T04:07:23.448Z,1006.87
2017-11-17T04:08:23.477Z,1006.92
2017-11-17T04:09:23.501Z,1006.89
2017-11-17T04:10:23.529Z,1006.88
2017-11-17T04:11:23.556Z,1006.81
2017-11-17T04:12:23.582Z,1006.81
2017-11-17T04:13:23.610Z,1006.87
2017-11-17T04:14:23.636Z,1006.79
2017-11-17T04:15:23.663Z,1006.86
2017-11-17T04:16:23.689Z,1006.84
2017-11-17T04:17:23.716Z,1006.79
2017-11-17T04:18:23.743Z,1006.74
2017-11-17T04:19:23.770Z,1006.74
2017-11-17T04:20:23.795Z,1006.76
2017-11-17T04:21:23.824Z,1006.74
2017-11-17T04:22:23.849Z,1006.77
2017-11-17T04:23:23.877Z,1006.78
2017-11-17T04:24:23.904Z,1006.78
2017-11-17T04:25:23.980Z,1006.73
2017-11-17T04:26:23.957Z,1006.70
2017-11-17T04:27:23.984Z,1006.70
2017-11-17T04:28:24.010Z,1006.65
2017-11-17T04:29:24.037Z,1006.66
2017-11-17T04:30:24.064Z,1006.67
2017-11-17T04:31:24.091Z,1006.64
2017-11-17T04:32:24.116Z,1006.60
2017-11-17T04:33:24.144Z,1006.61
2017-11-17T04:34:24.170Z,1006.63
2017-11-17T04:35:24.197Z,1006.61
2017-11-17T04:36:24.224Z,1006.63
2017-11-17T04:37:24.253Z,1006.63
2017-11-17T04:38:24.277Z,1006.64
2017-11-17T04:39:24.302Z,1006.63
2017-11-17T04:40:24.346Z,1006.65
2017-11-17T04:41:24.354Z,1006.64
2017-11-17T04:42:24.382Z,1006.61
2017-11-17T04:43:24.409Z,1006.63
2017-11-17T04:44:24.435Z,1006.63
2017-11-17T04:45:24.461Z,1006.60
2017-11-17T04:46:24.538Z,1006.58
2017-11-17T04:47:24.514Z,1006.57
2017-11-17T04:48:24.550Z,1006.60
2017-11-17T04:49:24.572Z,1006.62
2017-11-17T04:50:24.594Z,1006.61
2017-11-17T04:51:24.622Z,1006.61
2017-11-17T04:52:24.646Z,1006.59
2017-11-17T04:53:24.674Z,1006.62
2017-11-17T04:54:24.701Z,1006.60
2017-11-17T04:55:24.728Z,1006.50
2017-11-17T04:56:24.754Z,1006.59
2017-11-17T04:57:24.781Z,1006.58
2017-11-17T04:58:24.812Z,1006.58
2017-11-17T04:59:24.835Z,1006.57
2017-11-17T05:00:24.861Z,1006.61
2017-11-17T05:01:24.887Z,1006.57
2017-11-17T05:02:24.914Z,1006.58
2017-11-17T05:03:24.943Z,1006.60
2017-11-17T05:04:24.969Z,1006.62
2017-11-17T05:05:24.995Z,1006.59
2017-11-17T05:06:25.020Z,1006.61
2017-11-17T05:07:25.049Z,1006.62
2017-11-17T05:08:25.074Z,1006.70
2017-11-17T05:09:25.102Z,1006.63
2017-11-17T05:10:25.128Z,1006.63
2017-11-17T05:11:25.156Z,1006.61
2017-11-17T05:12:25.181Z,1006.63
2017-11-17T05:13:25.207Z,1006.65
2017-11-17T05:14:25.236Z,1006.67
2017-11-17T05:15:25.261Z,1006.63
2017-11-17T05:16:25.288Z,1006.67
2017-11-17T05:17:25.365Z,1006.73
2017-11-17T05:18:25.341Z,1006.68
2017-11-17T05:19:25.370Z,1006.68
2017-11-17T05:20:25.395Z,1006.66
2017-11-17T05:21:25.421Z,1006.65
2017-11-17T05:22:25.475Z,1006.67
2017-11-17T05:23:25.475Z,1006.67
2017-11-17T05:24:25.501Z,1006.68
2017-11-17T05:25:25.532Z,1006.66
2017-11-17T05:26:25.556Z,1006.72
2017-11-17T05:27:25.583Z,1006.71
2017-11-17T05:28:25.609Z,1006.71
2017-11-17T05:29:25.636Z,1006.74
2017-11-17T05:30:25.663Z,1006.73
2017-11-17T05:31:25.697Z,1006.72
2017-11-17T05:32:25.720Z,1006.75
2017-11-17T05:33:25.743Z,1006.73
2017-11-17T05:34:25.771Z,1006.73
2017-11-17T05:35:25.799Z,1006.72
2017-11-17T05:36:25.823Z,1006.70
2017-11-17T05:37:25.853Z,1006.75
2017-11-17T05:38:25.881Z,1006.77
2017-11-17T05:39:25.906Z,1006.79
2017-11-17T05:40:25.934Z,1006.82
2017-11-17T05:41:25.958Z,1006.75
2017-11-17T05:42:25.985Z,1006.70
2017-11-17T05:43:26.013Z,1006.74
2017-11-17T05:44:26.038Z,1006.66
2017-11-17T05:45:26.066Z,1006.68
2017-11-17T05:46:26.094Z,1006.60
2017-11-17T05:47:26.120Z,1006.62
2017-11-17T05:48:26.146Z,1006.64
2017-11-17T05:49:26.173Z,1006.58
2017-11-17T05:50:26.200Z,1006.64
2017-11-17T05:51:26.228Z,1006.68
2017-11-17T05:52:26.254Z,1006.60
2017-11-17T05:53:26.282Z,1006.62
2017-11-17T05:54:26.307Z,1006.70
2017-11-17T05:55:26.335Z,1006.62
2017-11-17T05:56:26.361Z,1006.61
2017-11-17T05:57:26.388Z,1006.64
2017-11-17T05:58:26.415Z,1006.65
2017-11-17T05:59:26.444Z,1006.67
2017-11-17T06:00:26.470Z,1006.69
2017-11-17T06:01:26.496Z,1006.60
2017-11-17T06:02:26.523Z,1006.65
2017-11-17T06:03:26.552Z,1006.59
2017-11-17T06:04:26.577Z,1006.56
2017-11-17T06:05:26.613Z,1006.56
2017-11-17T06:06:26.638Z,1006.66
2017-11-17T06:07:26.659Z,1006.60
2017-11-17T06:08:26.684Z,1006.61
2017-11-17T06:09:26.711Z,1006.61
2017-11-17T06:10:26.740Z,1006.60
2017-11-17T06:11:26.767Z,1006.65
2017-11-17T06:12:26.794Z,1006.60
2017-11-17T06:13:26.819Z,1006.67
2017-11-17T06:14:26.848Z,1006.65
2017-11-17T06:15:26.874Z,1006.66
2017-11-17T06:16:26.901Z,1006.68
2017-11-17T06:17:26.931Z,1006.70
2017-11-17T06:18:26.961Z,1006.69
2017-11-17T06:19:26.982Z,1006.67
2017-11-17T06:20:27.008Z,1006.67
2017-11-17T06:21:27.035Z,1006.66
2017-11-17T06:22:27.063Z,1006.65
2017-11-17T06:23:27.091Z,1006.65
2017-11-17T06:24:27.116Z,1006.67
2017-11-17T06:25:27.143Z,1006.62
2017-11-17T06:26:27.171Z,1006.69
2017-11-17T06:27:27.198Z,1006.71
2017-11-17T06:28:27.225Z,1006.65
2017-11-17T06:29:27.252Z,1006.67
2017-11-17T06:30:27.279Z,1006.70
2017-11-17T06:31:27.306Z,1006.65
2017-11-17T06:32:27.332Z,1006.64
2017-11-17T06:33:27.361Z,1006.67
2017-11-17T06:34:27.386Z,1006.64
2017-11-17T06:35:27.416Z,1006.66
2017-11-17T06:36:27.441Z,1006.64
2017-11-17T06:37:27.473Z,1006.66
2017-11-17T06:38:27.501Z,1006.76
2017-11-17T06:39:27.521Z,1006.71
2017-11-17T06:40:27.548Z,1006.75
2017-11-17T06:41:27.576Z,1006.74
2017-11-17T06:42:27.603Z,1006.68
2017-11-17T06:43:27.630Z,1006.71
2017-11-17T06:44:27.657Z,1006.71
2017-11-17T06:45:27.685Z,1006.79
2017-11-17T06:46:27.711Z,1006.78
2017-11-17T06:47:27.738Z,1006.75
2017-11-17T06:48:27.773Z,1006.81
2017-11-17T06:49:27.792Z,1006.82
2017-11-17T06:50:27.820Z,1006.80
2017-11-17T06:51:27.851Z,1006.81
2017-11-17T06:52:27.874Z,1006.87
2017-11-17T06:53:27.900Z,1006.92
2017-11-17T06:54:27.928Z,1006.93
2017-11-17T06:55:27.955Z,1006.92
2017-11-17T06:56:27.981Z,1007.03
2017-11-17T06:57:28.014Z,1006.98
2017-11-17T06:58:28.036Z,1006.99
2017-11-17T06:59:28.063Z,1007.05
2017-11-17T07:00:28.088Z,1007.03
2017-11-17T07:01:28.125Z,1007.07
2017-11-17T07:02:28.143Z,1007.08
2017-11-17T07:03:28.172Z,1007.04
2017-11-17T07:04:28.196Z,1007.04
2017-11-17T07:05:28.225Z,1007.05
2017-11-17T07:06:28.252Z,1007.06
2017-11-17T07:07:28.280Z,1007.02
2017-11-17T07:08:28.369Z,1007.02
2017-11-17T07:09:28.332Z,1007.07
2017-11-17T07:10:28.360Z,1007.06
2017-11-17T07:11:28.396Z,1007.04
2017-11-17T07:12:28.414Z,1007.03
2017-11-17T07:13:28.443Z,1007.06
2017-11-17T07:14:28.476Z,1007.06
2017-11-17T07:15:28.496Z,1007.09
2017-11-17T07:16:28.521Z,1007.10
2017-11-17T07:17:28.548Z,1007.14
2017-11-17T07:18:28.575Z,1007.16
2017-11-17T07:19:28.602Z,1007.19
2017-11-17T07:20:28.667Z,1007.19
2017-11-17T07:21:28.656Z,1007.22
2017-11-17T07:22:28.684Z,1007.22
2017-11-17T07:23:28.715Z,1007.26
2017-11-17T07:24:28.738Z,1007.27
2017-11-17T07:25:28.764Z,1007.29
2017-11-17T07:26:28.800Z,1007.29
2017-11-17T07:27:28.819Z,1007.26
2017-11-17T07:28:28.846Z,1007.29
2017-11-17T07:29:28.872Z,1007.28
2017-11-17T07:30:28.900Z,1007.26
2017-11-17T07:31:28.928Z,1007.26
2017-11-17T07:32:28.957Z,1007.27
2017-11-17T07:33:28.981Z,1007.22
2017-11-17T07:34:29.008Z,1007.27
2017-11-17T07:35:29.037Z,1007.26
2017-11-17T07:36:29.063Z,1007.25
2017-11-17T07:37:29.091Z,1007.25
2017-11-17T07:38:29.118Z,1007.26
2017-11-17T07:39:29.146Z,1007.27
2017-11-17T07:40:29.171Z,1007.24
2017-11-17T07:41:29.206Z,1007.23
2017-11-17T07:42:29.234Z,1007.25
2017-11-17T07:43:29.256Z,1007.27
2017-11-17T07:44:29.281Z,1007.25
2017-11-17T07:45:29.310Z,1007.24
2017-11-17T07:46:29.336Z,1007.26
2017-11-17T07:47:29.364Z,1007.25
2017-11-17T07:48:29.391Z,1007.23
2017-11-17T07:49:29.419Z,1007.27
2017-11-17T07:50:29.447Z,1007.27
2017-11-17T07:51:29.474Z,1007.27
2017-11-17T07:52:29.500Z,1007.23
2017-11-17T07:53:29.528Z,1007.19
2017-11-17T07:54:29.555Z,1007.16
2017-11-17T07:55:29.585Z,1007.17
2017-11-17T07:56:29.610Z,1007.21
2017-11-17T07:57:29.639Z,1007.20
2017-11-17T07:58:29.666Z,1007.21
2017-11-17T07:59:29.703Z,1007.22
2017-11-17T08:00:29.721Z,1007.22
2017-11-17T08:01:29.751Z,1007.21
2017-11-17T08:02:29.776Z,1007.23
2017-11-17T08:03:29.804Z,1007.17
2017-11-17T08:04:29.830Z,1007.22
2017-11-17T08:05:29.858Z,1007.16
2017-11-17T08:06:29.886Z,1007.12
2017-11-17T08:07:29.913Z,1007.15
2017-11-17T08:08:29.941Z,1007.10
2017-11-17T08:09:29.969Z,1007.13
2017-11-17T08:10:29.996Z,1007.08
2017-11-17T08:11:30.025Z,1007.10
2017-11-17T08:12:30.050Z,1007.07
2017-11-17T08:13:30.078Z,1007.07
2017-11-17T08:14:30.106Z,1007.05
2017-11-17T08:15:30.134Z,1007.03
2017-11-17T08:16:30.161Z,1007.03
2017-11-17T08:17:30.189Z,1007.04
2017-11-17T08:18:30.267Z,1007.05
2017-11-17T08:19:30.243Z,1007.04
2017-11-17T08:20:30.270Z,1007.02
2017-11-17T08:21:30.299Z,1007.02
2017-11-17T08:22:30.326Z,1007.06
2017-11-17T08:23:30.357Z,1007.06
2017-11-17T08:24:30.381Z,1007.04
2017-11-17T08:25:30.410Z,1007.08
2017-11-17T08:26:30.440Z,1007.04
2017-11-17T08:27:30.466Z,1007.05
2017-11-17T08:28:30.491Z,1007.10
2017-11-17T08:29:30.520Z,1007.11
2017-11-17T08:30:30.548Z,1007.09
2017-11-17T08:31:30.576Z,1007.07
2017-11-17T08:32:30.604Z,1007.09
2017-11-17T08:33:30.630Z,1007.08
2017-11-17T08:34:30.663Z,1007.09
2017-11-17T08:35:30.686Z,1007.07
2017-11-17T08:36:30.713Z,1007.07
2017-11-17T08:37:30.741Z,1007.08
2017-11-17T08:38:30.770Z,1007.07
2017-11-17T08:39:30.798Z,1007.07
2017-11-17T08:40:30.824Z,1006.99
2017-11-17T08:41:30.853Z,1007.06
2017-11-17T08:42:30.880Z,1007.04
2017-11-17T08:43:30.910Z,1007.07
2017-11-17T08:44:30.935Z,1007.04
2017-11-17T08:45:30.965Z,1007.07
2017-11-17T08:46:30.993Z,1007.08
2017-11-17T08:47:31.021Z,1007.01
2017-11-17T08:48:31.047Z,1007.03
2017-11-17T08:49:31.077Z,1007.02
2017-11-17T08:50:31.105Z,1007.10
2017-11-17T08:51:31.136Z,1007.05
2017-11-17T08:52:31.162Z,1007.06
2017-11-17T08:53:31.191Z,1007.03
2017-11-17T08:54:31.220Z,1007.02
2017-11-17T08:55:31.245Z,1007.03
2017-11-17T08:56:31.274Z,1006.99
2017-11-17T08:57:31.302Z,1007.05
2017-11-17T08:58:31.332Z,1007.07
2017-11-17T08:59:31.360Z,1007.02
2017-11-17T09:00:31.393Z,1007.04
2017-11-17T09:01:31.415Z,1007.09
2017-11-17T09:02:31.445Z,1007.07
2017-11-17T09:03:31.474Z,1007.02
2017-11-17T09:04:31.501Z,1007.06
2017-11-17T09:05:31.530Z,1007.06
2017-11-17T09:06:31.561Z,1007.05
2017-11-17T09:07:31.588Z,1007.05
2017-11-17T09:08:31.614Z,1007.06
2017-11-17T09:09:31.644Z,1007.09
2017-11-17T09:10:31.672Z,1007.08
2017-11-17T09:11:31.707Z,1007.09
2017-11-17T09:12:31.728Z,1007.10
2017-11-17T09:13:31.757Z,1007.04
2017-11-17T09:14:31.785Z,1007.09
2017-11-17T09:15:31.816Z,1007.10
2017-11-17T09:16:31.843Z,1007.13
2017-11-17T09:17:31.872Z,1007.13
2017-11-17T09:18:31.902Z,1007.10
2017-11-17T09:19:31.928Z,1007.12
2017-11-17T09:20:31.965Z,1007.12
2017-11-17T09:21:31.986Z,1007.08
2017-11-17T09:22:32.017Z,1007.07
2017-11-17T09:23:32.044Z,1007.04
2017-11-17T09:24:32.076Z,1007.01
2017-11-17T09:25:32.100Z,1007.03
2017-11-17T09:26:32.136Z,1007.05
2017-11-17T09:27:32.160Z,1007.06
2017-11-17T09:28:32.188Z,1007.01
2017-11-17T09:29:32.222Z,1007.01
2017-11-17T09:30:32.246Z,1007.03
2017-11-17T09:31:32.274Z,1007.05
2017-11-17T09:32:32.303Z,1007.05
2017-11-17T09:33:32.331Z,1007.08
2017-11-17T09:34:32.360Z,1007.08
2017-11-17T09:35:32.389Z,1007.05
2017-11-17T09:36:32.419Z,1007.07
2017-11-17T09:37:32.497Z,1007.08
2017-11-17T09:38:32.475Z,1007.07
2017-11-17T09:39:32.505Z,1007.07
2017-11-17T09:40:32.538Z,1007.08
2017-11-17T09:41:32.562Z,1007.07
2017-11-17T09:42:32.590Z,1007.08
2017-11-17T09:43:32.643Z,1007.06
2017-11-17T09:44:32.647Z,1007.09
2017-11-17T09:45:32.677Z,1007.10
2017-11-17T09:46:32.715Z,1007.13
2017-11-17T09:47:32.733Z,1007.07
2017-11-17T09:48:32.762Z,1007.10
2017-11-17T09:49:32.792Z,1007.10
2017-11-17T09:50:32.819Z,1007.13
2017-11-17T09:51:32.850Z,1007.13
2017-11-17T09:52:32.876Z,1007.05
2017-11-17T09:53:32.937Z,1007.07
2017-11-17T09:54:32.934Z,1007.11
2017-11-17T09:55:32.964Z,1007.10
2017-11-17T09:56:32.992Z,1007.12
2017-11-17T09:57:33.021Z,1007.14
2017-11-17T09:58:33.053Z,1007.14
2017-11-17T09:59:33.088Z,1007.19
2017-11-17T10:00:33.107Z,1007.19
2017-11-17T10:01:33.161Z,1007.18
2017-11-17T10:02:33.165Z,1007.23
2017-11-17T10:03:33.196Z,1007.23
2017-11-17T10:04:33.222Z,1007.20
2017-11-17T10:05:33.253Z,1007.21
2017-11-17T10:06:33.281Z,1007.23
2017-11-17T10:07:33.311Z,1007.24
2017-11-17T10:08:33.341Z,1007.27
2017-11-17T10:09:33.430Z,1007.23
2017-11-17T10:10:33.398Z,1007.29
2017-11-17T10:11:33.428Z,1007.27
2017-11-17T10:12:33.455Z,1007.25
2017-11-17T10:13:33.487Z,1007.25
2017-11-17T10:14:33.520Z,1007.21
2017-11-17T10:15:33.545Z,1007.25
2017-11-17T10:16:33.574Z,1007.26
2017-11-17T10:17:33.604Z,1007.21
2017-11-17T10:18:33.633Z,1007.22
2017-11-17T10:19:33.661Z,1007.25
2017-11-17T10:20:33.690Z,1007.24
2017-11-17T10:21:33.730Z,1007.24
2017-11-17T10:22:33.751Z,1007.24
2017-11-17T10:23:33.781Z,1007.22
2017-11-17T10:24:33.811Z,1007.23
2017-11-17T10:25:33.838Z,1007.21
2017-11-17T10:26:33.867Z,1007.22
2017-11-17T10:27:33.899Z,1007.21
2017-11-17T10:28:33.928Z,1007.17
2017-11-17T10:29:33.958Z,1007.17
2017-11-17T10:30:33.987Z,1007.14
2017-11-17T10:31:34.017Z,1007.17
2017-11-17T10:32:34.046Z,1007.16
2017-11-17T10:33:34.077Z,1007.14
2017-11-17T10:34:34.110Z,1007.16
2017-11-17T10:35:34.134Z,1007.15
2017-11-17T10:36:34.169Z,1007.16
2017-11-17T10:37:34.192Z,1007.14
2017-11-17T10:38:34.231Z,1007.14
2017-11-17T10:39:34.251Z,1007.11
2017-11-17T10:40:34.288Z,1007.11
2017-11-17T10:41:34.309Z,1007.14
2017-11-17T10:42:34.337Z,1007.11
2017-11-17T10:43:34.367Z,1007.09
2017-11-17T10:44:34.397Z,1007.07
2017-11-17T10:45:34.424Z,1007.07
2017-11-17T10:46:34.455Z,1007.05
2017-11-17T10:47:34.484Z,1007.02
2017-11-17T10:48:34.512Z,1007.02
2017-11-17T10:49:34.541Z,1007.01
2017-11-17T10:50:34.574Z,1006.99
2017-11-17T10:51:34.601Z,1007.00
2017-11-17T10:52:34.629Z,1006.99
2017-11-17T10:53:34.658Z,1007.00
2017-11-17T10:54:34.689Z,1007.02
2017-11-17T10:55:34.716Z,1006.97
2017-11-17T10:56:34.746Z,1007.02
2017-11-17T10:57:34.783Z,1007.02
2017-11-17T10:58:34.805Z,1006.99
2017-11-17T10:59:34.835Z,1006.98
2017-11-17T11:00:34.863Z,1006.99
2017-11-17T11:01:34.899Z,1006.99
2017-11-17T11:02:34.923Z,1006.97
2017-11-17T11:03:34.953Z,1006.99
2017-11-17T11:04:34.981Z,1007.00
2017-11-17T11:05:35.018Z,1007.01
2017-11-17T11:06:35.040Z,1007.03
2017-11-17T11:07:35.074Z,1006.96
2017-11-17T11:08:35.099Z,1007.00
2017-11-17T11:09:35.129Z,1007.00
2017-11-17T11:10:35.157Z,1007.00
2017-11-17T11:11:35.186Z,1007.01
2017-11-17T11:12:35.402Z,1007.04
2017-11-17T11:13:35.245Z,1006.98
2017-11-17T11:14:35.285Z,1007.02
2017-11-17T11:15:35.304Z,1007.01
2017-11-17T11:16:35.333Z,1007.02
2017-11-17T11:17:35.362Z,1006.99
2017-11-17T11:18:35.393Z,1007.00
2017-11-17T11:19:35.471Z,1006.98
2017-11-17T11:20:35.454Z,1006.97
2017-11-17T11:21:35.479Z,1006.97
2017-11-17T11:22:35.509Z,1006.96
2017-11-17T11:23:35.539Z,1006.95
2017-11-17T11:24:35.667Z,1006.94
2017-11-17T11:25:35.596Z,1006.96
2017-11-17T11:26:35.627Z,1006.97
2017-11-17T11:27:35.657Z,1006.96
2017-11-17T11:28:35.683Z,1006.90
2017-11-17T11:29:35.714Z,1006.87
2017-11-17T11:30:35.744Z,1006.90
2017-11-17T11:31:35.772Z,1006.89
2017-11-17T11:32:35.803Z,1006.85
2017-11-17T11:33:35.831Z,1006.85
2017-11-17T11:34:35.862Z,1006.86
2017-11-17T11:35:35.890Z,1006.82
2017-11-17T11:36:35.919Z,1006.87
2017-11-17T11:37:35.949Z,1006.88
2017-11-17T11:38:35.980Z,1006.89
2017-11-17T11:39:36.011Z,1006.86
2017-11-17T11:40:36.038Z,1006.91
2017-11-17T11:41:36.068Z,1006.88
2017-11-17T11:42:36.099Z,1006.84
2017-11-17T11:43:36.129Z,1006.87
2017-11-17T11:44:36.159Z,1006.85
2017-11-17T11:45:36.196Z,1006.83
2017-11-17T11:46:36.218Z,1006.81
2017-11-17T11:47:36.249Z,1006.84
2017-11-17T11:48:36.279Z,1006.79
2017-11-17T11:49:36.310Z,1006.77
2017-11-17T11:50:36.343Z,1006.74
2017-11-17T11:51:36.371Z,1006.74
2017-11-17T11:52:36.401Z,1006.72
2017-11-17T11:53:36.430Z,1006.70
2017-11-17T11:54:36.462Z,1006.71
2017-11-17T11:55:36.494Z,1006.71
2017-11-17T11:56:36.523Z,1006.68
2017-11-17T11:57:36.555Z,1006.69
2017-11-17T11:58:36.584Z,1006.71
2017-11-17T11:59:36.616Z,1006.70
2017-11-17T12:00:36.647Z,1006.69
2017-11-17T12:01:36.686Z,1006.69
2017-11-17T12:02:36.708Z,1006.63
2017-11-17T12:03:36.739Z,1006.62
2017-11-17T12:04:36.769Z,1006.61
2017-11-17T12:05:36.809Z,1006.58